Time;durP1;ratioP1;P1;durP2;ratioP2;P2;SDS_P1;SDS_P2;PMS_P1;PMS_P2;Temp;Humidity;BMP_temperature;BMP_pressure;BME280_temperature;BME280_humidity;BME280_pressure;Samples;Min_cycle;Max_cycle;Signal;HPM_P1;HPM_P2
2022/03/13 00:00:44;;;;;;;11.35;9.13;;;-2.50;98.50;-3.10;99599.00;;;;4890458;28;87584;-62
2022/03/13 00:03:10;;;;;;;12.55;9.65;;;-2.50;98.40;-3.20;99598.00;;;;4894579;28;87169;-64
2022/03/13 00:05:40;;;;;;;11.88;8.25;;;-2.60;98.50;-3.20;99598.00;;;;4894437;28;86366;-62
2022/03/13 00:08:31;;;;;;;10.75;7.82;;;-2.60;98.50;-3.20;99597.00;;;;4893043;28;88916;-61
2022/03/13 00:11:17;;;;;;;11.83;9.17;;;-2.60;98.40;-3.20;99588.00;;;;4893866;28;87766;-62
2022/03/13 00:13:51;;;;;;;12.70;9.27;;;-2.60;98.60;-3.20;99593.00;;;;4891732;28;88859;-62
2022/03/13 00:16:18;;;;;;;10.85;9.18;;;-2.60;98.60;-3.20;99580.00;;;;4876931;28;87093;-63
2022/03/13 00:18:48;;;;;;;10.63;8.55;;;-2.60;98.60;-3.20;99572.00;;;;4890849;28;87761;-63
2022/03/13 00:21:19;;;;;;;11.45;8.85;;;-2.60;98.60;-3.20;99576.00;;;;4893980;28;88530;-62
2022/03/13 00:23:47;;;;;;;11.73;8.73;;;-2.60;98.70;-3.10;99579.00;;;;4891506;28;87456;-63
2022/03/13 00:26:17;;;;;;;12.02;8.20;;;-2.50;98.40;-3.10;99572.00;;;;4892186;28;87067;-62
2022/03/13 00:28:45;;;;;;;9.38;7.40;;;-2.50;98.30;-3.00;99571.00;;;;4851603;28;90881;-62
2022/03/13 00:31:12;;;;;;;13.23;8.93;;;-2.40;98.10;-3.00;99568.00;;;;4891551;28;88444;-63
2022/03/13 00:33:38;;;;;;;12.07;8.35;;;-2.40;98.10;-3.00;99569.00;;;;4860807;28;88208;-63
2022/03/13 00:36:06;;;;;;;12.35;9.32;;;-2.40;98.10;-3.00;99574.00;;;;4893244;28;87428;-63
2022/03/13 00:38:36;;;;;;;12.32;9.20;;;-2.40;98.20;-3.00;99586.00;;;;4889228;28;88525;-62
2022/03/13 00:41:05;;;;;;;11.27;9.48;;;-2.50;98.30;-3.10;99578.00;;;;4883568;28;87577;-65
2022/03/13 00:43:33;;;;;;;11.27;9.32;;;-2.50;98.40;-3.10;99577.00;;;;4890615;28;87041;-62
2022/03/13 00:45:59;;;;;;;11.10;9.13;;;-2.50;98.50;-3.10;99575.00;;;;4894208;28;87581;-62
2022/03/13 00:48:27;;;;;;;14.25;10.00;;;-2.50;98.40;-3.10;99577.00;;;;4890060;28;89200;-62
2022/03/13 00:50:55;;;;;;;10.75;8.68;;;-2.50;98.50;-3.10;99582.00;;;;4891163;28;87467;-62
2022/03/13 00:53:21;;;;;;;11.63;8.95;;;-2.50;98.50;-3.10;99572.00;;;;4891622;28;87529;-63
2022/03/13 00:55:54;;;;;;;11.50;9.48;;;-2.50;98.60;-3.10;99581.00;;;;4891741;28;86944;-63
2022/03/13 00:58:20;;;;;;;11.85;9.40;;;-2.50;98.70;-3.10;99585.00;;;;4890948;28;87689;-62
2022/03/13 01:00:47;;;;;;;11.20;9.23;;;-2.50;98.70;-3.10;99580.00;;;;4889279;28;87552;-61
2022/03/13 01:03:35;;;;;;;12.60;9.07;;;-2.50;98.70;-3.10;99580.00;;;;4891412;28;88438;-62
2022/03/13 01:06:08;;;;;;;11.88;9.68;;;-2.50;98.70;-3.10;99573.00;;;;4878699;28;87281;-62
2022/03/13 01:08:35;;;;;;;12.95;10.18;;;-2.50;98.70;-3.10;99583.00;;;;4882353;28;88684;-63
2022/03/13 01:11:03;;;;;;;11.77;8.32;;;-2.50;98.70;-3.10;99578.00;;;;4892526;28;87337;-63
2022/03/13 01:13:30;;;;;;;10.13;8.68;;;-2.50;98.60;-3.10;99580.00;;;;4892441;28;87043;-62
2022/03/13 01:16:23;;;;;;;11.32;9.18;;;-2.50;98.70;-3.10;99587.00;;;;4879331;28;87456;-61
2022/03/13 01:18:58;;;;;;;11.82;9.50;;;-2.50;98.80;-3.10;99576.00;;;;4890499;28;89084;-62
2022/03/13 01:21:26;;;;;;;12.95;9.68;;;-2.50;98.80;-3.10;99579.00;;;;4890903;28;87645;-61
2022/03/13 01:24:01;;;;;;;9.95;8.68;;;-2.50;98.70;-3.00;99576.00;;;;4884757;28;87925;-63
2022/03/13 01:26:27;;;;;;;11.98;10.07;;;-2.40;98.60;-3.00;99579.00;;;;4892945;28;87465;-63
2022/03/13 01:28:58;;;;;;;12.57;10.77;;;-2.50;98.70;-3.00;99579.00;;;;4883903;28;89646;-63
2022/03/13 01:31:32;;;;;;;10.77;9.55;;;-2.40;98.80;-3.00;99587.00;;;;4894015;28;88265;-63
2022/03/13 01:33:59;;;;;;;11.68;9.80;;;-2.40;98.70;-3.00;99586.00;;;;4893041;28;87358;-63
2022/03/13 01:36:26;;;;;;;10.93;9.63;;;-2.50;98.80;-3.10;99597.00;;;;4873206;28;87092;-62
2022/03/13 01:38:55;;;;;;;10.93;9.73;;;-2.50;98.90;-3.00;99591.00;;;;4889429;28;88214;-61
2022/03/13 01:41:28;;;;;;;11.10;9.45;;;-2.40;98.90;-3.00;99597.00;;;;4889330;28;88513;-62
2022/03/13 01:43:58;;;;;;;13.05;9.10;;;-2.50;98.80;-3.10;99597.00;;;;4890218;28;87424;-62
2022/03/13 01:46:26;;;;;;;11.45;9.98;;;-2.50;98.90;-3.00;99592.00;;;;4889596;28;86643;-63
2022/03/13 01:49:03;;;;;;;11.65;9.65;;;-2.40;98.80;-3.10;99600.00;;;;4890450;28;87640;-63
2022/03/13 01:51:31;;;;;;;10.98;9.80;;;-2.50;98.90;-3.10;99599.00;;;;4882909;28;88406;-62
2022/03/13 01:54:02;;;;;;;10.73;9.25;;;-2.50;98.90;-3.10;99599.00;;;;4859314;28;88498;-62
2022/03/13 01:56:31;;;;;;;13.88;10.40;;;-2.50;98.90;-3.00;99603.00;;;;4891574;28;87661;-63
2022/03/13 01:59:26;;;;;;;11.70;10.45;;;-2.50;98.90;-3.00;99608.00;;;;4891610;28;87566;-64
2022/03/13 02:01:52;;;;;;;13.32;10.00;;;-2.40;99.00;-3.00;99604.00;;;;4887847;28;88321;-63
2022/03/13 02:04:26;;;;;;;10.00;8.95;;;-2.40;98.90;-3.00;99608.00;;;;4880504;28;87422;-62
2022/03/13 02:06:55;;;;;;;10.02;8.70;;;-2.40;99.10;-3.00;99613.00;;;;4889405;28;86991;-62
2022/03/13 02:09:22;;;;;;;10.80;8.60;;;-2.40;99.20;-3.00;99613.00;;;;4888896;28;87565;-63
2022/03/13 02:11:50;;;;;;;11.65;10.18;;;-2.40;99.20;-3.00;99614.00;;;;4893793;28;87206;-62
2022/03/13 02:14:21;;;;;;;11.50;10.20;;;-2.40;99.30;-2.90;99614.00;;;;4892107;28;87254;-62
2022/03/13 02:16:49;;;;;;;10.07;8.60;;;-2.40;99.20;-3.00;99613.00;;;;4890803;28;87749;-61
2022/03/13 02:19:17;;;;;;;9.80;8.43;;;-2.40;99.30;-3.00;99620.00;;;;4890426;28;89024;-63
2022/03/13 02:21:51;;;;;;;9.73;7.78;;;-2.40;99.30;-3.00;99623.00;;;;4880295;28;88648;-61
2022/03/13 02:24:23;;;;;;;7.68;6.38;;;-2.50;99.30;-3.00;99619.00;;;;4886577;28;87404;-62
2022/03/13 02:27:01;;;;;;;8.27;7.20;;;-2.50;99.30;-3.00;99618.00;;;;4878051;28;87495;-61
2022/03/13 02:29:28;;;;;;;8.90;7.85;;;-2.50;99.30;-3.10;99611.00;;;;4888525;28;87779;-62
2022/03/13 02:31:57;;;;;;;8.85;7.68;;;-2.50;99.40;-3.00;99616.00;;;;4886643;28;88493;-62
2022/03/13 02:34:24;;;;;;;10.07;7.28;;;-2.50;99.40;-3.10;99607.00;;;;4876151;28;87118;-62
2022/03/13 02:36:50;;;;;;;7.68;6.53;;;-2.50;99.30;-3.10;99607.00;;;;4876647;28;86829;-62
2022/03/13 02:39:17;;;;;;;7.50;6.13;;;-2.50;99.30;-3.10;99604.00;;;;4886374;28;87987;-62
2022/03/13 02:41:45;;;;;;;7.70;6.53;;;-2.50;99.20;-3.10;99608.00;;;;4892954;28;87198;-62
2022/03/13 02:44:19;;;;;;;8.60;6.93;;;-2.50;99.30;-3.00;99610.00;;;;4883915;28;88388;-62
2022/03/13 02:46:53;;;;;;;8.60;7.70;;;-2.50;99.20;-3.10;99608.00;;;;4892283;28;87474;-62
2022/03/13 02:49:22;;;;;;;7.20;5.75;;;-2.50;99.40;-3.10;99616.00;;;;4894225;28;88162;-62
2022/03/13 02:51:52;;;;;;;8.32;5.95;;;-2.50;99.30;-3.10;99616.00;;;;4892063;28;87389;-62
2022/03/13 02:54:19;;;;;;;7.07;6.18;;;-2.50;99.30;-3.10;99615.00;;;;4892977;28;87847;-64
2022/03/13 02:56:46;;;;;;;8.15;5.88;;;-2.60;99.40;-3.20;99610.00;;;;4890021;28;87443;-62
2022/03/13 02:59:13;;;;;;;8.10;6.32;;;-2.60;99.40;-3.20;99618.00;;;;4895334;28;88150;-63
2022/03/13 03:01:40;;;;;;;7.85;5.50;;;-2.60;99.50;-3.20;99612.00;;;;4893469;28;87366;-63
2022/03/13 03:04:07;;;;;;;6.60;5.75;;;-2.60;99.50;-3.10;99619.00;;;;4894409;28;87953;-64
2022/03/13 03:06:37;;;;;;;8.70;6.18;;;-2.60;99.60;-3.10;99618.00;;;;4890180;28;87345;-62
2022/03/13 03:09:04;;;;;;;7.35;6.53;;;-2.60;99.50;-3.10;99627.00;;;;4892508;28;88508;-62
2022/03/13 03:11:34;;;;;;;7.72;6.93;;;-2.60;99.60;-3.10;99633.00;;;;4893807;28;89105;-62
2022/03/13 03:14:04;;;;;;;8.65;6.10;;;-2.60;99.70;-3.20;99637.00;;;;4895609;28;87674;-62
2022/03/13 03:16:30;;;;;;;9.23;7.05;;;-2.60;99.70;-3.20;99634.00;;;;4893681;28;87334;-62
2022/03/13 03:18:57;;;;;;;7.25;6.47;;;-2.70;99.70;-3.20;99635.00;;;;4880888;28;87610;-63
2022/03/13 03:21:24;;;;;;;6.80;5.97;;;-2.70;99.90;-3.20;99640.00;;;;4893452;28;87762;-62
2022/03/13 03:23:51;;;;;;;8.63;6.45;;;-2.70;99.90;-3.30;99628.00;;;;4883333;28;87570;-63
2022/03/13 03:26:17;;;;;;;6.97;6.28;;;-2.70;99.90;-3.30;99641.00;;;;4895575;28;86945;-63
2022/03/13 03:28:44;;;;;;;7.95;6.50;;;-2.70;99.90;-3.30;99638.00;;;;4877090;28;88441;-62
2022/03/13 03:31:11;;;;;;;7.45;6.63;;;-2.80;99.90;-3.30;99628.00;;;;4892906;28;88034;-62
2022/03/13 03:33:37;;;;;;;7.07;6.30;;;-2.80;99.90;-3.40;99637.00;;;;4896761;28;88566;-62
2022/03/13 03:36:04;;;;;;;6.53;4.90;;;-2.80;99.90;-3.40;99642.00;;;;4890444;28;87395;-62
2022/03/13 03:38:30;;;;;;;6.13;5.18;;;-2.90;99.90;-3.50;99637.00;;;;4878253;28;87773;-62
2022/03/13 03:40:56;;;;;;;7.68;6.50;;;-2.90;99.90;-3.50;99633.00;;;;4890834;28;88442;-62
2022/03/13 03:43:22;;;;;;;7.55;5.75;;;-2.90;99.90;-3.50;99634.00;;;;4897219;28;87438;-62
2022/03/13 03:45:49;;;;;;;6.63;5.40;;;-2.90;99.90;-3.50;99619.00;;;;4888779;28;87725;-62
2022/03/13 03:48:15;;;;;;;7.90;5.07;;;-2.90;99.90;-3.50;99634.00;;;;4893167;28;89098;-62
2022/03/13 03:50:41;;;;;;;7.38;5.38;;;-2.90;99.90;-3.50;99632.00;;;;4893264;28;88388;-62
2022/03/13 03:53:07;;;;;;;5.22;4.72;;;-2.90;99.90;-3.50;99627.00;;;;4886098;28;87326;-62
2022/03/13 03:55:33;;;;;;;5.43;4.22;;;-3.00;99.90;-3.60;99620.00;;;;4891447;28;87137;-63
2022/03/13 03:57:59;;;;;;;5.68;4.40;;;-3.00;99.90;-3.60;99622.00;;;;4890404;28;88603;-62
2022/03/13 04:00:26;;;;;;;3.95;3.47;;;-3.00;99.90;-3.60;99625.00;;;;4891971;28;88861;-62
2022/03/13 04:02:53;;;;;;;4.35;3.40;;;-3.00;99.90;-3.60;99627.00;;;;4895631;28;87061;-62
2022/03/13 04:05:19;;;;;;;5.00;3.55;;;-3.00;99.90;-3.60;99629.00;;;;4892064;28;87148;-62
2022/03/13 04:07:46;;;;;;;3.85;3.22;;;-3.00;99.90;-3.60;99628.00;;;;4861845;28;87866;-62
2022/03/13 04:10:13;;;;;;;3.63;2.70;;;-3.00;99.90;-3.70;99637.00;;;;4890970;28;88892;-62
2022/03/13 04:12:39;;;;;;;3.97;3.10;;;-3.10;99.90;-3.70;99639.00;;;;4887891;28;87772;-61
2022/03/13 04:15:06;;;;;;;3.63;3.25;;;-3.10;99.90;-3.70;99640.00;;;;4896070;28;86694;-62
2022/03/13 04:17:32;;;;;;;4.78;3.65;;;-3.20;99.90;-3.80;99644.00;;;;4890687;28;87573;-62
2022/03/13 04:19:59;;;;;;;4.30;3.35;;;-3.20;99.90;-3.80;99630.00;;;;4893023;28;88750;-62
2022/03/13 04:22:27;;;;;;;4.32;2.72;;;-3.20;99.90;-3.90;99630.00;;;;4891650;28;88294;-63
2022/03/13 04:24:54;;;;;;;3.53;2.58;;;-3.30;99.90;-3.90;99638.00;;;;4894078;28;87424;-63
2022/03/13 04:27:21;;;;;;;2.60;2.38;;;-3.30;99.90;-3.90;99624.00;;;;4892194;28;87051;-63
2022/03/13 04:29:47;;;;;;;3.42;2.80;;;-3.30;99.90;-3.90;99623.00;;;;4891932;28;88007;-64
2022/03/13 04:32:14;;;;;;;3.55;2.67;;;-3.30;99.90;-3.90;99625.00;;;;4896170;28;87174;-63
2022/03/13 04:34:40;;;;;;;4.22;3.10;;;-3.30;99.90;-3.80;99628.00;;;;4892265;28;87137;-62
2022/03/13 04:37:06;;;;;;;4.15;2.80;;;-3.30;99.90;-3.90;99638.00;;;;4891013;28;87337;-64
2022/03/13 04:39:35;;;;;;;4.05;2.80;;;-3.30;99.90;-3.90;99624.00;;;;4893779;28;87691;-62
2022/03/13 04:42:05;;;;;;;4.35;3.03;;;-3.30;99.90;-3.90;99636.00;;;;4891571;28;87365;-63
2022/03/13 04:44:33;;;;;;;2.55;2.35;;;-3.30;99.90;-3.80;99622.00;;;;4882930;28;87794;-63
2022/03/13 04:47:01;;;;;;;2.92;2.55;;;-3.30;99.90;-3.80;99640.00;;;;4893410;28;88565;-64
2022/03/13 04:49:28;;;;;;;2.88;2.50;;;-3.20;99.90;-3.80;99631.00;;;;4884563;28;88622;-64
2022/03/13 04:51:54;;;;;;;3.42;2.40;;;-3.20;99.90;-3.70;99626.00;;;;4885061;28;87090;-62
2022/03/13 04:54:21;;;;;;;5.03;2.83;;;-3.20;99.90;-3.70;99634.00;;;;4888832;28;87485;-64
2022/03/13 04:56:48;;;;;;;3.47;2.50;;;-3.20;99.90;-3.70;99630.00;;;;4892073;28;87420;-64
2022/03/13 04:59:14;;;;;;;3.00;2.50;;;-3.10;99.90;-3.60;99633.00;;;;4891524;28;87231;-63
2022/03/13 05:01:40;;;;;;;4.25;2.55;;;-3.10;99.90;-3.60;99627.00;;;;4894665;28;87288;-63
2022/03/13 05:04:07;;;;;;;2.85;2.47;;;-3.10;99.90;-3.60;99636.00;;;;4884773;28;86774;-64
2022/03/13 05:06:37;;;;;;;4.57;2.80;;;-3.10;99.90;-3.60;99625.00;;;;4895599;28;88029;-63
2022/03/13 05:09:05;;;;;;;3.22;2.60;;;-3.00;99.90;-3.50;99631.00;;;;4885845;28;87401;-63
2022/03/13 05:11:32;;;;;;;3.72;2.58;;;-3.00;99.80;-3.50;99629.00;;;;4883597;28;88314;-62
2022/03/13 05:13:58;;;;;;;4.43;2.70;;;-3.00;99.80;-3.40;99620.00;;;;4888511;28;87058;-64
2022/03/13 05:16:24;;;;;;;3.58;2.50;;;-2.90;99.70;-3.30;99630.00;;;;4894009;28;88718;-63
2022/03/13 05:18:50;;;;;;;3.65;2.50;;;-2.80;99.60;-3.30;99633.00;;;;4892404;28;87270;-62
2022/03/13 05:21:17;;;;;;;3.15;2.30;;;-2.80;99.20;-3.30;99637.00;;;;4875246;28;87867;-63
2022/03/13 05:23:44;;;;;;;3.47;1.95;;;-2.80;99.20;-3.30;99626.00;;;;4890146;28;87439;-64
2022/03/13 05:26:10;;;;;;;3.17;2.22;;;-2.80;99.10;-3.20;99637.00;;;;4889837;28;87498;-63
2022/03/13 05:28:36;;;;;;;3.53;2.42;;;-2.70;98.90;-3.20;99639.00;;;;4884296;28;90260;-63
2022/03/13 05:31:03;;;;;;;3.90;2.60;;;-2.70;98.90;-3.20;99639.00;;;;4893143;28;88065;-63
2022/03/13 05:33:30;;;;;;;6.00;2.70;;;-2.70;98.90;-3.20;99655.00;;;;4891687;28;87664;-64
2022/03/13 05:35:59;;;;;;;3.35;2.28;;;-2.70;99.00;-3.20;99655.00;;;;4896098;28;88708;-63
2022/03/13 05:38:25;;;;;;;2.92;1.98;;;-2.80;98.90;-3.40;99650.00;;;;4892542;28;87416;-62
2022/03/13 05:40:52;;;;;;;3.88;1.90;;;-2.90;99.00;-3.40;99656.00;;;;4886998;28;87341;-63
2022/03/13 05:43:22;;;;;;;2.63;2.15;;;-3.00;99.20;-3.40;99656.00;;;;4893378;28;87363;-63
2022/03/13 05:45:48;;;;;;;4.25;2.40;;;-2.90;99.20;-3.50;99679.00;;;;4894990;28;88674;-62
2022/03/13 05:48:17;;;;;;;2.45;2.10;;;-3.00;99.30;-3.60;99664.00;;;;4890144;28;87434;-63
2022/03/13 05:50:46;;;;;;;3.20;2.30;;;-3.10;99.40;-3.50;99660.00;;;;4890630;28;87670;-64
2022/03/13 05:53:12;;;;;;;4.68;2.55;;;-3.00;99.50;-3.40;99653.00;;;;4890090;28;86332;-62
2022/03/13 05:55:38;;;;;;;3.97;2.13;;;-2.90;99.50;-3.30;99655.00;;;;4891801;28;87418;-62
2022/03/13 05:58:05;;;;;;;3.28;2.03;;;-2.80;99.40;-3.40;99670.00;;;;4888185;28;87359;-62
2022/03/13 06:00:32;;;;;;;4.30;2.75;;;-2.90;99.50;-3.50;99672.00;;;;4890535;28;88488;-63
2022/03/13 06:03:00;;;;;;;4.22;2.97;;;-3.00;99.90;-3.60;99677.00;;;;4889966;28;87085;-63
2022/03/13 06:05:31;;;;;;;7.22;3.20;;;-3.10;99.90;-3.50;99682.00;;;;4894629;28;88123;-63
2022/03/13 06:07:58;;;;;;;3.38;3.03;;;-3.00;99.90;-3.40;99665.00;;;;4854049;28;88356;-63
2022/03/13 06:10:25;;;;;;;5.95;3.47;;;-2.90;99.90;-3.40;99665.00;;;;4890055;28;87078;-63
2022/03/13 06:12:52;;;;;;;4.95;3.42;;;-2.90;99.90;-3.30;99670.00;;;;4887672;28;87957;-63
2022/03/13 06:15:19;;;;;;;4.90;3.50;;;-2.80;99.90;-3.30;99667.00;;;;4888510;28;88727;-63
2022/03/13 06:17:48;;;;;;;9.63;3.95;;;-2.80;99.90;-3.30;99679.00;;;;4889939;28;88874;-63
2022/03/13 06:20:17;;;;;;;4.78;3.53;;;-2.80;99.90;-3.20;99679.00;;;;4886782;28;87305;-63
2022/03/13 06:22:46;;;;;;;6.20;4.40;;;-2.70;99.90;-3.10;99680.00;;;;4891704;28;86890;-63
2022/03/13 06:25:14;;;;;;;5.97;3.60;;;-2.60;99.90;-3.10;99683.00;;;;4890481;28;89523;-63
2022/03/13 06:27:41;;;;;;;6.15;3.85;;;-2.70;99.90;-3.10;99690.00;;;;4892185;28;88174;-63
2022/03/13 06:30:13;;;;;;;6.68;3.92;;;-2.70;99.90;-3.10;99684.00;;;;4877340;28;87401;-62
2022/03/13 06:32:45;;;;;;;5.00;3.63;;;-2.60;99.90;-3.00;99683.00;;;;4891879;28;87496;-62
2022/03/13 06:35:14;;;;;;;6.63;4.32;;;-2.50;99.90;-2.90;99686.00;;;;4880382;28;88662;-61
2022/03/13 06:37:41;;;;;;;7.25;4.30;;;-2.50;99.90;-2.90;99690.00;;;;4859913;28;87578;-60
2022/03/13 06:40:09;;;;;;;5.78;4.47;;;-2.40;99.90;-2.80;99677.00;;;;4885937;28;87197;-63
2022/03/13 06:42:36;;;;;;;7.18;4.70;;;-2.30;99.90;-2.70;99680.00;;;;4893979;28;86413;-62
2022/03/13 06:45:03;;;;;;;7.68;4.85;;;-2.20;99.90;-2.70;99676.00;;;;4889945;28;88878;-62
2022/03/13 06:47:29;;;;;;;8.50;4.70;;;-2.30;99.90;-2.70;99686.00;;;;4881138;28;88423;-62
2022/03/13 06:49:56;;;;;;;6.68;4.88;;;-2.30;99.90;-2.70;99678.00;;;;4890835;28;88798;-62
2022/03/13 06:52:23;;;;;;;6.57;4.95;;;-2.20;99.90;-2.70;99682.00;;;;4892650;28;87283;-62
2022/03/13 06:54:49;;;;;;;7.18;5.13;;;-2.20;99.90;-2.70;99682.00;;;;4890391;28;89201;-62
2022/03/13 06:57:15;;;;;;;6.97;5.28;;;-2.20;99.90;-2.60;99676.00;;;;4888415;28;87045;-64
2022/03/13 06:59:43;;;;;;;7.50;5.43;;;-2.20;99.90;-2.50;99688.00;;;;4892188;28;87103;-62
2022/03/13 07:02:11;;;;;;;6.97;5.22;;;-2.10;99.90;-2.50;99678.00;;;;4878962;28;87096;-63
2022/03/13 07:04:38;;;;;;;8.05;5.70;;;-2.00;99.90;-2.40;99679.00;;;;4894576;28;87253;-63
2022/03/13 07:07:05;;;;;;;8.82;6.07;;;-2.00;99.90;-2.30;99663.00;;;;4889042;28;87159;-63
2022/03/13 07:09:32;;;;;;;7.20;5.43;;;-1.90;99.90;-2.20;99662.00;;;;4885317;28;87063;-63
2022/03/13 07:11:59;;;;;;;8.20;5.63;;;-1.70;99.90;-2.00;99649.00;;;;4857837;28;87092;-64
2022/03/13 07:14:25;;;;;;;7.70;5.78;;;-1.50;99.90;-1.80;99655.00;;;;4880901;28;89002;-63
2022/03/13 07:16:53;;;;;;;9.25;6.28;;;-1.40;99.90;-1.70;99655.00;;;;4888636;28;89680;-63
2022/03/13 07:19:20;;;;;;;9.40;5.57;;;-1.30;99.80;-1.60;99647.00;;;;4889795;28;87288;-63
2022/03/13 07:21:46;;;;;;;11.23;6.55;;;-1.20;99.60;-1.50;99655.00;;;;4854362;28;87096;-63
2022/03/13 07:24:12;;;;;;;8.95;6.50;;;-1.10;99.60;-1.40;99666.00;;;;4894477;28;87584;-63
2022/03/13 07:26:38;;;;;;;11.23;7.30;;;-1.10;99.50;-1.30;99654.00;;;;4894609;28;87382;-63
2022/03/13 07:29:04;;;;;;;11.13;7.88;;;-0.90;99.80;-1.30;99662.00;;;;4891308;28;86924;-62
2022/03/13 07:31:31;;;;;;;12.50;8.10;;;-0.90;99.20;-1.30;99637.00;;;;4882169;28;87312;-62
2022/03/13 07:33:58;;;;;;;11.38;7.72;;;-0.90;99.00;-1.10;99654.00;;;;4886979;28;88244;-62
2022/03/13 07:36:25;;;;;;;11.00;6.85;;;-0.80;99.10;-1.10;99634.00;;;;4861172;28;87820;-62
2022/03/13 07:38:51;;;;;;;16.77;8.63;;;-0.70;98.70;-1.00;99643.00;;;;4887434;28;88940;-62
2022/03/13 07:41:20;;;;;;;10.27;7.63;;;-0.80;98.80;-0.90;99634.00;;;;4890422;28;87442;-62
2022/03/13 07:43:46;;;;;;;10.77;7.63;;;-0.70;98.80;-0.70;99636.00;;;;4896840;28;88529;-62
2022/03/13 07:46:13;;;;;;;8.88;6.55;;;-0.40;98.40;-0.60;99633.00;;;;4885034;28;87238;-63
2022/03/13 07:48:39;;;;;;;11.18;6.88;;;-0.30;97.90;-0.40;99635.00;;;;4847911;28;87151;-62
2022/03/13 07:51:06;;;;;;;11.27;6.78;;;0.00;97.90;-0.30;99633.00;;;;4878690;28;87103;-63
2022/03/13 07:53:33;;;;;;;9.38;6.93;;;0.00;97.30;-0.30;99641.00;;;;4889519;28;88762;-61
2022/03/13 07:55:59;;;;;;;11.73;7.13;;;0.00;97.40;-0.20;99647.00;;;;4887947;28;88535;-63
2022/03/13 07:58:29;;;;;;;14.63;8.30;;;0.10;97.40;-0.10;99638.00;;;;4887536;28;87265;-62
2022/03/13 08:00:56;;;;;;;13.18;6.72;;;0.20;97.00;0.00;99636.00;;;;4873169;28;87432;-62
2022/03/13 08:03:28;;;;;;;10.80;6.53;;;0.20;97.10;0.20;99635.00;;;;4891220;28;88427;-62
2022/03/13 08:05:54;;;;;;;14.35;7.60;;;0.40;96.80;0.40;99640.00;;;;4894274;28;88721;-61
2022/03/13 08:08:20;;;;;;;12.32;7.38;;;0.60;96.60;0.40;99639.00;;;;4888136;28;87015;-61
2022/03/13 08:10:47;;;;;;;12.63;7.78;;;0.60;96.40;0.30;99657.00;;;;4896682;28;87455;-62
2022/03/13 08:13:13;;;;;;;8.98;5.75;;;0.50;96.50;0.20;99655.00;;;;4889721;28;87870;-61
2022/03/13 08:15:39;;;;;;;13.45;8.18;;;0.30;96.50;-0.10;99666.00;;;;4886229;28;87557;-64
2022/03/13 08:18:06;;;;;;;11.88;6.93;;;0.10;96.90;0.00;99671.00;;;;4884981;28;87430;-64
2022/03/13 08:20:32;;;;;;;10.65;6.75;;;0.20;97.00;-0.10;99664.00;;;;4890965;28;86290;-62
2022/03/13 08:22:59;;;;;;;13.75;7.40;;;0.10;96.90;-0.10;99658.00;;;;4889314;28;88955;-63
2022/03/13 08:25:25;;;;;;;14.80;8.63;;;0.20;97.10;-0.10;99651.00;;;;4883231;28;87453;-64
2022/03/13 08:27:51;;;;;;;9.98;6.80;;;0.20;97.30;-0.10;99665.00;;;;4873872;28;88305;-62
2022/03/13 08:30:18;;;;;;;10.80;7.75;;;0.10;97.10;-0.20;99662.00;;;;4890691;28;87853;-62
2022/03/13 08:32:44;;;;;;;14.48;7.68;;;0.00;97.30;-0.20;99656.00;;;;4870936;28;88843;-64
2022/03/13 08:35:11;;;;;;;13.85;7.47;;;0.00;97.40;-0.20;99647.00;;;;4866719;28;87929;-63
2022/03/13 08:37:38;;;;;;;9.60;7.45;;;0.10;97.60;-0.10;99642.00;;;;4883293;28;87412;-63
2022/03/13 08:40:06;;;;;;;13.80;7.55;;;0.20;97.50;-0.10;99643.00;;;;4850373;28;89069;-62
2022/03/13 08:42:33;;;;;;;11.80;7.20;;;0.20;97.30;-0.10;99641.00;;;;4893806;28;87556;-63
2022/03/13 08:45:00;;;;;;;11.60;8.20;;;0.20;97.20;0.00;99646.00;;;;4893234;28;88299;-63
2022/03/13 08:47:27;;;;;;;12.90;7.22;;;0.20;97.40;0.00;99643.00;;;;4894555;28;87448;-63
2022/03/13 08:49:54;;;;;;;10.10;7.28;;;0.20;97.30;0.00;99647.00;;;;4893756;28;87283;-63
2022/03/13 08:52:21;;;;;;;10.55;6.88;;;0.20;97.30;-0.10;99652.00;;;;4891075;28;88394;-63
2022/03/13 08:54:47;;;;;;;10.80;6.93;;;0.10;97.40;-0.10;99653.00;;;;4895143;28;88142;-62
2022/03/13 08:57:15;;;;;;;9.57;6.47;;;0.00;97.40;-0.10;99645.00;;;;4888810;28;88682;-62
2022/03/13 08:59:41;;;;;;;9.25;7.38;;;0.20;97.50;0.10;99647.00;;;;4886506;28;87484;-63
2022/03/13 09:02:09;;;;;;;9.95;7.22;;;0.30;97.20;0.10;99649.00;;;;4888093;28;87612;-63
2022/03/13 09:04:35;;;;;;;9.23;7.55;;;0.40;97.00;0.00;99638.00;;;;4887834;28;88408;-62
2022/03/13 09:07:02;;;;;;;11.38;7.65;;;0.20;97.30;0.00;99645.00;;;;4886017;28;87452;-62
2022/03/13 09:09:28;;;;;;;9.73;7.22;;;0.30;97.20;0.10;99634.00;;;;4882870;28;86889;-63
2022/03/13 09:11:56;;;;;;;11.73;7.97;;;0.40;97.20;0.00;99630.00;;;;4882162;28;87898;-61
2022/03/13 09:14:23;;;;;;;9.77;7.18;;;0.20;97.60;-0.10;99624.00;;;;4883482;28;87975;-63
2022/03/13 09:16:49;;;;;;;11.35;7.60;;;0.20;97.50;0.00;99627.00;;;;4879999;28;88547;-63
2022/03/13 09:19:15;;;;;;;10.93;7.90;;;0.20;97.50;0.10;99644.00;;;;4880739;28;87429;-64
2022/03/13 09:21:42;;;;;;;10.25;7.20;;;0.20;97.50;-0.10;99639.00;;;;4887109;28;88025;-63
2022/03/13 09:24:11;;;;;;;11.88;7.50;;;0.20;97.50;0.10;99623.00;;;;4891285;28;88427;-64
2022/03/13 09:26:39;;;;;;;12.80;7.55;;;0.40;97.80;0.40;99627.00;;;;4891604;28;87111;-64
2022/03/13 09:29:07;;;;;;;11.88;7.65;;;0.70;97.40;0.50;99626.00;;;;4888723;28;87465;-64
2022/03/13 09:31:34;;;;;;;10.45;7.18;;;0.70;96.90;0.70;99619.00;;;;4888661;28;88954;-63
2022/03/13 09:34:01;;;;;;;11.88;6.60;;;0.90;96.70;0.80;99619.00;;;;4885489;28;87395;-62
2022/03/13 09:36:27;;;;;;;9.23;6.78;;;0.90;96.50;0.90;99614.00;;;;4896928;28;87049;-64
2022/03/13 09:38:53;;;;;;;8.82;5.82;;;1.00;96.50;0.80;99628.00;;;;4881491;28;87404;-64
2022/03/13 09:41:20;;;;;;;11.02;6.18;;;0.90;96.50;0.70;99629.00;;;;4894387;28;89137;-67
2022/03/13 09:43:47;;;;;;;9.05;5.72;;;0.80;96.50;0.60;99624.00;;;;4889517;28;88340;-64
2022/03/13 09:46:17;;;;;;;9.50;6.05;;;0.80;96.60;0.80;99617.00;;;;4890786;28;87329;-65
2022/03/13 09:48:44;;;;;;;9.02;6.05;;;0.90;96.80;1.00;99621.00;;;;4880818;28;87148;-65
2022/03/13 09:51:10;;;;;;;8.85;6.18;;;1.20;96.20;1.00;99623.00;;;;4890110;28;87712;-64
2022/03/13 09:53:38;;;;;;;9.65;6.10;;;1.20;95.90;1.00;99619.00;;;;4879697;28;88540;-63
2022/03/13 09:56:05;;;;;;;8.50;5.63;;;1.20;96.00;0.90;99620.00;;;;4892666;28;87548;-65
2022/03/13 09:58:32;;;;;;;8.85;5.82;;;1.10;96.00;1.10;99607.00;;;;4890210;28;86304;-65
2022/03/13 10:00:59;;;;;;;11.20;5.75;;;1.20;96.20;1.10;99605.00;;;;4883626;28;89001;-64
2022/03/13 10:03:26;;;;;;;10.20;6.10;;;1.20;95.80;1.00;99609.00;;;;4885663;28;87628;-64
2022/03/13 10:05:55;;;;;;;11.90;5.32;;;1.10;96.10;1.00;99612.00;;;;4888546;28;88371;-64
2022/03/13 10:08:31;;;;;;;7.63;5.03;;;1.20;96.20;0.90;99614.00;;;;4884802;28;87541;-64
2022/03/13 10:10:58;;;;;;;9.48;6.00;;;1.10;96.00;1.00;99615.00;;;;4872991;28;87816;-63
2022/03/13 10:13:45;;;;;;;8.82;5.90;;;1.20;96.30;1.10;99614.00;;;;4897075;28;88949;-63
2022/03/13 10:16:35;;;;;;;9.10;5.75;;;1.20;96.30;0.90;99606.00;;;;4883760;28;87254;-63
2022/03/13 10:19:19;;;;;;;9.40;5.43;;;1.10;96.30;0.90;99609.00;;;;4890295;28;87852;-66
2022/03/13 10:22:07;;;;;;;8.52;6.20;;;1.10;96.40;0.90;99607.00;;;;4872679;28;87504;-64
2022/03/13 10:24:46;;;;;;;10.43;5.85;;;1.00;96.40;1.10;99606.00;;;;4870417;28;87316;-64
2022/03/13 10:27:14;;;;;;;10.10;5.88;;;1.20;96.20;1.10;99604.00;;;;4883228;28;87041;-64
2022/03/13 10:29:42;;;;;;;7.60;5.80;;;1.30;96.00;1.30;99596.00;;;;4871392;28;87851;-64
2022/03/13 10:32:09;;;;;;;8.48;6.20;;;1.40;95.90;1.50;99585.00;;;;4884513;28;88740;-63
2022/03/13 10:34:37;;;;;;;8.30;5.43;;;1.70;95.70;1.40;99580.00;;;;4885902;28;88374;-63
2022/03/13 10:37:04;;;;;;;9.27;5.68;;;1.50;96.10;1.20;99574.00;;;;4887699;28;87094;-64
2022/03/13 10:39:33;;;;;;;11.35;5.63;;;1.40;95.80;1.30;99572.00;;;;4886830;28;87290;-64
2022/03/13 10:42:04;;;;;;;8.80;5.75;;;1.40;95.80;1.50;99578.00;;;;4884980;28;87677;-64
2022/03/13 10:44:43;;;;;;;8.40;5.53;;;1.70;95.70;1.70;99576.00;;;;4880201;28;87319;-64
2022/03/13 10:47:10;;;;;;;8.30;6.15;;;1.80;95.50;1.90;99562.00;;;;4883458;28;87662;-64
2022/03/13 10:49:46;;;;;;;10.70;5.97;;;2.10;95.00;1.50;99566.00;;;;4882795;28;86994;-64
2022/03/13 10:52:34;;;;;;;9.82;5.95;;;1.80;94.80;1.70;99575.00;;;;4882251;28;88680;-64
2022/03/13 10:55:24;;;;;;;12.27;6.50;;;1.80;95.10;1.50;99564.00;;;;4882010;28;88237;-63
2022/03/13 10:57:58;;;;;;;8.43;5.63;;;1.80;95.20;1.70;99574.00;;;;4878594;28;88915;-63
2022/03/13 11:00:25;;;;;;;9.95;5.97;;;1.90;95.40;1.70;99568.00;;;;4890561;28;87236;-62